Thunder radar more information blitzortung!


Radar de pluja more information rain snow radar


Visita la nostra xarxa de llocs de meteo:

Template documentation
and downloads

And another site



No particular awareness of the weather is required.    There are no Weather-warnings

Pagina Historial Weather Underground text

Diari Resum Setembre 5, 2017 Unitats:  Imperial    Mètric   Tant
« Previous Dia
SegĂźent Dia »
Diari Setmana Mensual Anual Personalitzada
  Maxima: Minima: Media:
Temperatura: 90.1 °F 61.9 °F 78.6 °F
Punt de rosada: 65.7 °F 57 °F 62.1 °F
Humitat: 86 % 38 % 60 %
Wind Speed: 12.7 mph 0 mph 4.1 mph
RĂ fegues de vent: 12.7 mph - -
Vent:- - SW
Pression baro: 30.2 in 30 in -
Precipitacions: 0 in    
Historical Graphs
 
 
Dades de taula per Setembre 5, 2017
Temps Temperatura Punt de rosada Pression baro Vent Wind Speed RĂ fegues de vent Humitat Rainfall Rate (Hourly)
00:00 64.6 °F 59 °F 30.1 in Calm   1 mph 82 % 0 in
00:02 68.7 °F 59.4 °F 30.1 in Calm     72 % 0 in
00:10 64.6 °F 59 °F 30.1 in NNW 1 mph 2 mph 82 % 0 in
00:20 64.4 °F 58.8 °F 30.1 in Calm   2 mph 82 % 0 in
00:30 64.2 °F 58.6 °F 30.1 in Calm     82 % 0 in
00:40 63.7 °F 58.1 °F 30.1 in Calm   1 mph 82 % 0 in
00:50 63.3 °F 57.7 °F 30.1 in WSW 1 mph 2 mph 82 % 0 in
01:00 63.1 °F 57.6 °F 30.1 in WSW 1 mph 2 mph 82 % 0 in
01:10 63 °F 57.7 °F 30.1 in SW 1 mph 2 mph 83 % 0 in
01:20 63 °F 57.7 °F 30.1 in SW 1 mph 2 mph 83 % 0 in
01:30 63 °F 57.7 °F 30.1 in Calm   1 mph 83 % 0 in
01:40 63.1 °F 58.3 °F 30.1 in Calm     84 % 0 in
01:50 63.1 °F 58.3 °F 30.1 in Calm     84 % 0 in
02:00 62.6 °F 57.4 °F 30.1 in Calm   2 mph 83 % 0 in
02:10 62.6 °F 57.7 °F 30.1 in Calm     84 % 0 in
02:20 61.9 °F 57 °F 30.1 in WSW 1 mph 2 mph 84 % 0 in
02:30 62.1 °F 57.2 °F 30.1 in SW 1 mph 2 mph 84 % 0 in
02:40 62.1 °F 57.6 °F 30.1 in Calm   2 mph 85 % 0 in
02:50 62.6 °F 57.9 °F 30.1 in Calm   2 mph 85 % 0 in
03:00 63.7 °F 59.4 °F 30.1 in Calm   1 mph 86 % 0 in
03:10 65.1 °F 60.4 °F 30.1 in Calm     85 % 0 in
03:20 66.2 °F 61 °F 30.1 in Calm   1 mph 83 % 0 in
03:30 67.8 °F 61.9 °F 30.1 in Calm     81 % 0 in
03:40 68.4 °F 61.5 °F 30.1 in Calm     79 % 0 in
03:50 68.4 °F 61.2 °F 30.1 in NNW 1 mph 1 mph 78 % 0 in
04:00 68.4 °F 61 °F 30.1 in Calm     77 % 0 in
04:10 68.5 °F 61 °F 30.2 in West 1 mph 1 mph 77 % 0 in
04:20 70.2 °F 62.2 °F 30.2 in Calm   2 mph 76 % 0 in
04:30 70 °F 61.7 °F 30.1 in SSW 1 mph 2 mph 75 % 0 in
04:40 70.5 °F 61.9 °F 30.1 in SW 1 mph 2 mph 74 % 0 in
04:50 71.8 °F 62.2 °F 30.1 in Calm   3 mph 72 % 0 in
05:00 72.7 °F 62.8 °F 30.1 in NE 2 mph 3 mph 71 % 0 in
05:10 73.9 °F 63.5 °F 30.1 in NNE 2 mph 3 mph 70 % 0 in
05:20 75.4 °F 63.7 °F 30.1 in SSE 1 mph 3 mph 67 % 0 in
10:23 74.5 °F 63.1 °F 30.2 in ESE 3.5 mph 3.5 mph 68 % 0 in
10:24 74.5 °F 63.1 °F 30.2 in ESE 3.5 mph 3.5 mph 68 % 0 in
10:29 75.2 °F 63.5 °F 30.2 in NNW 2.4 mph   67 % 0 in
10:34 75.6 °F 63.3 °F 30.2 in SE 2.3 mph 2.3 mph 66 % 0 in
10:39 76.3 °F 64.6 °F 30.1 in NE 2.4 mph 2.4 mph 67 % 0 in
10:44 76.6 °F 64.4 °F 30.1 in ENE 3.6 mph 3.6 mph 66 % 0 in
10:49 76.8 °F 64.2 °F 30.1 in SSE 1.2 mph 1.2 mph 65 % 0 in
10:54 77.7 °F 64.6 °F 30.1 in North 2 mph   64 % 0 in
10:59 78.8 °F 65.7 °F 30.1 in SW 2.3 mph 2.3 mph 64 % 0 in
11:04 79.5 °F 65.5 °F 30.1 in SE 2.3 mph 2.3 mph 62 % 0 in
11:09 79.7 °F 65.5 °F 30.2 in NW 2.3 mph 2.3 mph 62 % 0 in
11:14 80.4 °F 65.3 °F 30.2 in SSE 3.5 mph 3.5 mph 60 % 0 in
11:19 81.1 °F 65.5 °F 30.2 in SSE 3.8 mph 3.8 mph 59 % 0 in
11:24 81 °F 65.3 °F 30.1 in SSW 4.6 mph 4.6 mph 59 % 0 in
11:29 81.7 °F 65.5 °F 30.1 in WNW 4 mph 4 mph 58 % 0 in
11:34 82 °F 65.3 °F 30.1 in SSE 1.2 mph 1.2 mph 57 % 0 in
11:39 83.1 °F 64.8 °F 30.1 in SSW 5.8 mph 5.8 mph 54 % 0 in
11:44 82.6 °F 64.8 °F 30.1 in South 5.8 mph 5.8 mph 55 % 0 in
11:49 82 °F 63.9 °F 30.1 in SSW 4.6 mph 4.6 mph 54 % 0 in
11:54 82 °F 63.1 °F 30.1 in WSW 5.8 mph 5.8 mph 53 % 0 in
11:59 83.3 °F 63.9 °F 30.1 in South 3.5 mph 3.5 mph 52 % 0 in
12:04 84 °F 63.9 °F 30.1 in WSW 4 mph 4 mph 51 % 0 in
12:09 83.5 °F 63.3 °F 30.1 in WSW 9.2 mph 9.2 mph 51 % 0 in
12:14 84 °F 63.3 °F 30.1 in SSW 4.3 mph 4.3 mph 50 % 0 in
12:19 84.9 °F 63.7 °F 30.1 in SSW 5.8 mph 5.8 mph 49 % 0 in
12:24 84.7 °F 63 °F 30.1 in SW 6.9 mph 6.9 mph 48 % 0 in
12:29 84.2 °F 62.4 °F 30.1 in SSW 4.6 mph 4.6 mph 48 % 0 in
12:34 85.1 °F 62.6 °F 30.1 in SW 4.6 mph 4.6 mph 47 % 0 in
12:39 85.8 °F 62.6 °F 30.1 in SSW 5.8 mph 5.8 mph 46 % 0 in
12:44 86.2 °F 62.2 °F 30.1 in SSE 3.1 mph 3.1 mph 45 % 0 in
12:49 86.2 °F 63 °F 30.1 in SSE 2.3 mph 2.3 mph 46 % 0 in
12:54 86 °F 62.8 °F 30.1 in South 4.6 mph 4.6 mph 46 % 0 in
12:59 86.9 °F 63 °F 30.1 in WSW 2.6 mph 2.6 mph 45 % 0 in
13:04 86.2 °F 61.7 °F 30.1 in SW 3.5 mph 3.5 mph 44 % 0 in
13:06 86.5 °F 62.1 °F 30.1 in West 3.5 mph 3.5 mph 44 % 0 in
13:11 87.3 °F 62.8 °F 30.1 in SSW 9.2 mph 9.2 mph 44 % 0 in
13:16 87.8 °F 61.9 °F 30.1 in WSW 3.1 mph 3.1 mph 42 % 0 in
13:21 87.6 °F 62.4 °F 30.1 in WSW 7.8 mph 7.8 mph 43 % 0 in
13:26 86.2 °F 59.7 °F 30.1 in SE 5.8 mph 5.8 mph 41 % 0 in
13:31 87.8 °F 61.2 °F 30.1 in SSW 3.5 mph 3.5 mph 41 % 0 in
13:36 88.3 °F 61.7 °F 30.1 in SW 4 mph 4 mph 41 % 0 in
13:41 88.5 °F 61.9 °F 30.1 in SW 5.6 mph 5.6 mph 41 % 0 in
13:56 88.2 °F 60.8 °F 30.1 in West 4.6 mph 4.6 mph 40 % 0 in
14:01 88.3 °F 59.5 °F 30.1 in SE 4.6 mph 4.6 mph 38 % 0 in
14:06 89.1 °F 61.5 °F 30.1 in WSW 5.8 mph 5.8 mph 40 % 0 in
14:11 88.5 °F 61.2 °F 30.1 in SW 3.5 mph 3.5 mph 40 % 0 in
14:16 90 °F 62.4 °F 30.1 in South 4.6 mph 4.6 mph 40 % 0 in
14:21 90 °F 62.4 °F 30.1 in WSW 4.6 mph 4.6 mph 40 % 0 in
14:26 89.2 °F 62.4 °F 30.1 in SW 8.1 mph 8.1 mph 41 % 0 in
14:31 89.4 °F 62.6 °F 30.1 in South 5.8 mph 5.8 mph 41 % 0 in
14:36 90 °F 63.1 °F 30.1 in WSW 4.5 mph 4.5 mph 41 % 0 in
14:41 89.2 °F 62.4 °F 30.1 in SSW 6 mph 6.9 mph 41 % 0 in
14:46 88.3 °F 61 °F 30.1 in SSE 6.9 mph 6.9 mph 40 % 0 in
14:51 89.1 °F 62.2 °F 30.1 in SSW 6.9 mph 6.9 mph 41 % 0 in
14:56 89.4 °F 62.6 °F 30.1 in SSE 8.1 mph 8.1 mph 41 % 0 in
15:01 89.4 °F 62.6 °F 30.1 in SW 5.8 mph 5.8 mph 41 % 0 in
15:06 89.8 °F 61.5 °F 30.1 in SW 3.6 mph 3.6 mph 39 % 0 in
15:11 89.8 °F 62.2 °F 30.1 in SSE 4.6 mph 4.6 mph 40 % 0 in
15:16 90 °F 62.4 °F 30.1 in South 6.9 mph 6.9 mph 40 % 0 in
15:21 88.9 °F 60.6 °F 30.1 in SW 4.6 mph 4.6 mph 39 % 0 in
15:26 90 °F 62.4 °F 30.1 in WNW 3.5 mph 3.5 mph 40 % 0 in
15:31 90.1 °F 62.6 °F 30.1 in SSW 3.5 mph 3.8 mph 40 % 0 in
15:36 89.8 °F 61.5 °F 30.1 in South 10.4 mph 10.4 mph 39 % 0 in
15:41 89.2 °F 61 °F 30.1 in SW 2.9 mph 2.9 mph 39 % 0 in
15:46 89.1 °F 61 °F 30.1 in ESE 5.8 mph 5.8 mph 39 % 0 in
15:51 89.8 °F 61.5 °F 30.1 in SSE 8.1 mph 8.1 mph 39 % 0 in
15:56 89.4 °F 61.2 °F 30.1 in SSW 6.9 mph 6.9 mph 39 % 0 in
16:01 88.2 °F 59.4 °F 30.1 in SW 6.9 mph 6.9 mph 38 % 0 in
16:06 88.5 °F 60.4 °F 30.1 in WSW 8.7 mph 8.7 mph 39 % 0 in
16:11 88.2 °F 60.1 °F 30.1 in SW 9.2 mph 9.2 mph 39 % 0 in
16:16 88.2 °F 60.1 °F 30.1 in SW 5.8 mph 5.8 mph 39 % 0 in
16:21 88 °F 59.9 °F 30.1 in SSW 8.1 mph 8.1 mph 39 % 0 in
16:26 88.5 °F 60.4 °F 30 in South 4.6 mph 4.6 mph 39 % 0 in
16:31 88.9 °F 60.6 °F 30 in SW 8.1 mph 8.1 mph 39 % 0 in
16:36 88.3 °F 61 °F 30 in South 5.8 mph 5.8 mph 40 % 0 in
16:41 88 °F 59.9 °F 30.1 in WSW 11.5 mph 11.5 mph 39 % 0 in
16:46 87.8 °F 60.4 °F 30.1 in WSW 5.8 mph 5.8 mph 40 % 0 in
16:51 87.6 °F 61 °F 30.1 in SW 8.1 mph 8.1 mph 41 % 0 in
16:56 87.6 °F 61 °F 30.1 in WSW 5.9 mph 5.9 mph 41 % 0 in
17:01 87.6 °F 61.7 °F 30.1 in SW 6.9 mph 6.9 mph 42 % 0 in
17:06 87.4 °F 61.5 °F 30.1 in South 10.4 mph 10.4 mph 42 % 0 in
17:11 86.9 °F 61 °F 30.1 in South 12.7 mph 12.7 mph 42 % 0 in
17:16 86.4 °F 60.6 °F 30.1 in SW 8.1 mph 8.1 mph 42 % 0 in
17:21 87.1 °F 61.2 °F 30.1 in SE 5.8 mph 5.8 mph 42 % 0 in
17:26 86.4 °F 61.2 °F 30.1 in SW 6.9 mph 6.9 mph 43 % 0 in
17:31 86.9 °F 61.7 °F 30.1 in SSW 7.4 mph 7.4 mph 43 % 0 in
17:36 85.8 °F 61.3 °F 30.1 in WSW 9.2 mph 9.2 mph 44 % 0 in
17:41 85.8 °F 61.3 °F 30.1 in SW 5.8 mph 5.8 mph 44 % 0 in
17:46 85.8 °F 61.3 °F 30.1 in SW 9.2 mph 9.2 mph 44 % 0 in
17:51 85.5 °F 61.2 °F 30.1 in SSW 8.1 mph 8.1 mph 44 % 0 in
17:56 85.8 °F 61.3 °F 30.1 in SSW 9.2 mph 9.2 mph 44 % 0 in
18:01 85.8 °F 62.1 °F 30.1 in WSW 6 mph 6 mph 45 % 0 in
18:06 85.5 °F 61.7 °F 30.1 in West 6.2 mph 6.2 mph 45 % 0 in
18:11 84.9 °F 61.9 °F 30.1 in SSW 6.9 mph 6.9 mph 46 % 0 in
18:16 84.7 °F 61.7 °F 30.1 in South 8.1 mph 8.1 mph 46 % 0 in
18:21 84.2 °F 61.9 °F 30.1 in South 5.8 mph 5.8 mph 47 % 0 in
18:26 84 °F 62.2 °F 30.1 in South 8.1 mph 8.1 mph 48 % 0 in
18:31 84.4 °F 61.9 °F 30.1 in SW 8.1 mph 8.1 mph 47 % 0 in
18:36 83.7 °F 62.4 °F 30.1 in South 12.7 mph 12.7 mph 49 % 0 in
18:41 83.7 °F 62.4 °F 30.1 in SW 4.6 mph 5.4 mph 49 % 0 in
18:46 83.3 °F 62.1 °F 30.1 in SW 9.7 mph 9.7 mph 49 % 0 in
18:51 82.9 °F 61.9 °F 30.1 in SW 6.9 mph 6.9 mph 49 % 0 in
18:56 82.6 °F 61.5 °F 30.1 in SW 8.1 mph 8.1 mph 49 % 0 in
19:01 82.2 °F 61.7 °F 30.1 in South 5.8 mph 5.8 mph 50 % 0 in
19:06 82.2 °F 61.7 °F 30.1 in SW 10.2 mph 10.2 mph 50 % 0 in
19:11 81.7 °F 61.9 °F 30.1 in SW 5.8 mph 5.8 mph 51 % 0 in
19:16 81.1 °F 61.3 °F 30.1 in WSW 10.4 mph 10.4 mph 51 % 0 in
19:21 80.8 °F 61.5 °F 30.1 in SSW 6.9 mph 6.9 mph 52 % 0 in
19:26 80.4 °F 61.7 °F 30.1 in WNW 5.8 mph 5.8 mph 53 % 0 in
19:31 80.1 °F 61.3 °F 30.1 in SSW 8.7 mph 8.7 mph 53 % 0 in
19:36 79.7 °F 61.5 °F 30.1 in SW 8.1 mph 8.1 mph 54 % 0 in
19:41 79.5 °F 61.3 °F 30.1 in SW 4.6 mph 4.6 mph 54 % 0 in
19:46 79.2 °F 61.5 °F 30.1 in West 10.4 mph 10.4 mph 55 % 0 in
19:51 79 °F 61.3 °F 30.1 in SW 8.1 mph 8.1 mph 55 % 0 in
19:56 78.8 °F 61.9 °F 30.1 in SW 6.9 mph 6.9 mph 56 % 0 in
20:01 78.3 °F 61.3 °F 30.1 in WSW 11.5 mph 11.5 mph 56 % 0 in
20:06 78.1 °F 61.5 °F 30.1 in SSW 5.8 mph 5.8 mph 57 % 0 in
20:11 77.9 °F 61.3 °F 30.1 in SSW 5.8 mph 5.8 mph 57 % 0 in
20:16 77.5 °F 61.2 °F 30.1 in WSW 5.8 mph 5.8 mph 57 % 0 in
20:21 77.4 °F 61 °F 30.1 in WSW 5.6 mph 5.6 mph 57 % 0 in
20:26 77.2 °F 61.3 °F 30.1 in West 5.8 mph 5.8 mph 58 % 0 in
20:31 76.8 °F 61.3 °F 30.1 in South 8.1 mph 8.1 mph 59 % 0 in
20:36 76.6 °F 61.7 °F 30.1 in WSW 4.6 mph 4.6 mph 60 % 0 in
20:41 76.5 °F 61.5 °F 30.1 in WSW 6.9 mph 6.9 mph 60 % 0 in
20:46 76.3 °F 61.3 °F 30.1 in West 5.8 mph 5.8 mph 60 % 0 in
20:51 76.1 °F 61.2 °F 30.1 in SW 3.5 mph 3.5 mph 60 % 0 in
20:56 75.9 °F 61.5 °F 30.1 in West 3.5 mph 3.5 mph 61 % 0 in
21:01 75.7 °F 61.9 °F 30.1 in WSW 2.9 mph 2.9 mph 62 % 0 in
21:06 75.6 °F 61.2 °F 30.1 in WSW 2.3 mph 2.9 mph 61 % 0 in
21:11 75.4 °F 61.5 °F 30.1 in SSE 2.3 mph 2.3 mph 62 % 0 in
21:16 75.2 °F 61.3 °F 30.1 in SW 3.8 mph 3.8 mph 62 % 0 in
21:21 75.2 °F 61.3 °F 30.1 in SSW 5.8 mph 5.8 mph 62 % 0 in
21:26 75 °F 62.1 °F 30.1 in SW 2.3 mph 2.3 mph 64 % 0 in
21:30 71.2 °F 65.1 °F 30.1 in SW 2 mph 2 mph 81 % 0 in
21:31 74.8 °F 61.9 °F 30.1 in SW 2.6 mph 2.6 mph 64 % 0 in
21:36 74.7 °F 62.1 °F 30.1 in South 2.3 mph 2.3 mph 65 % 0 in
21:40 71.1 °F 65.3 °F 30.1 in WSW 1 mph 3 mph 82 % 0 in
21:41 74.7 °F 62.1 °F 30.1 in SSW 3.5 mph 3.5 mph 65 % 0 in
21:42 74.5 °F 62.4 °F 30.1 in WSW 3.5 mph 3.5 mph 66 % 0 in
21:47 74.5 °F 62.8 °F 30.1 in SW 2.9 mph 2.9 mph 67 % 0 in
21:50 70.7 °F 64.9 °F 30.1 in WSW 2 mph 3 mph 82 % 0 in
21:52 74.3 °F 62.6 °F 30.1 in SSW 4.6 mph 4.6 mph 67 % 0 in
21:57 74.1 °F 63 °F 30.1 in SW 2.4 mph   68 % 0 in
22:00 70.7 °F 64.9 °F 30.1 in WSW 2 mph 3 mph 82 % 0 in
22:02 73.9 °F 62.8 °F 30.1 in WSW 2.3 mph 2.3 mph 68 % 0 in
22:07 73.9 °F 62.8 °F 30.1 in SW 2.3 mph 2.3 mph 68 % 0 in
22:10 70.7 °F 64.9 °F 30.1 in West 2 mph 3 mph 82 % 0 in
22:12 73.9 °F 63.1 °F 30.1 in SW 3.5 mph 3.5 mph 69 % 0 in
22:17 73.8 °F 63 °F 30.1 in SW 2.3 mph 2.3 mph 69 % 0 in
22:20 70.5 °F 65.5 °F 30.1 in Calm   2 mph 84 % 0 in
22:22 73.6 °F 63.1 °F 30.1 in SW 2.3 mph 2.4 mph 70 % 0 in
22:27 73.6 °F 63.1 °F 30.1 in SSW 3.5 mph 3.5 mph 70 % 0 in
22:30 70.5 °F 65.5 °F 30.1 in West 1 mph 2 mph 84 % 0 in
22:32 73.6 °F 63.7 °F 30.1 in WSW 2.3 mph 2.3 mph 71 % 0 in
22:37 73.6 °F 63.7 °F 30.1 in SW 1.2 mph 1.2 mph 71 % 0 in
22:40 70.5 °F 65.5 °F 30.1 in Calm   2 mph 84 % 0 in
22:42 73.4 °F 63.3 °F 30.1 in West 2.3 mph 2.3 mph 71 % 0 in
22:47 73.4 °F 63.9 °F 30.1 in WNW 1.4 mph 1.4 mph 72 % 0 in
22:50 70.3 °F 65.3 °F 30.1 in Calm   1 mph 84 % 0 in
22:52 73.4 °F 63.9 °F 30.1 in WSW 2 mph 2 mph 72 % 0 in
22:57 73.4 °F 63.9 °F 30.1 in WSW 2.3 mph 2.3 mph 72 % 0 in
23:00 70.2 °F 65.1 °F 30.1 in Calm     84 % 0 in
23:02 73.2 °F 64 °F 30.1 in WSW 2.3 mph 2.3 mph 73 % 0 in
23:07 73.2 °F 63.7 °F 30.1 in WSW 2.3 mph 2.4 mph 72 % 0 in
23:10 69.8 °F 65.1 °F 30.1 in Calm   2 mph 85 % 0 in
23:12 73.2 °F 64 °F 30.1 in WSW 2.3 mph 2.3 mph 73 % 0 in
23:17 73 °F 63.9 °F 30.1 in WSW 2.3 mph 2.3 mph 73 % 0 in
23:20 69.6 °F 64.9 °F 30.1 in ESE 1 mph 1 mph 85 % 0 in
23:22 73 °F 63.9 °F 30.1 in WSW 2.3 mph 2.3 mph 73 % 0 in
23:27 73 °F 64.2 °F 30.1 in WSW 2.3 mph 2.3 mph 74 % 0 in
23:30 69.3 °F 64.6 °F 30.1 in Calm   2 mph 85 % 0 in
23:32 72.9 °F 64 °F 30.1 in WSW 2.3 mph 2.3 mph 74 % 0 in
23:37 72.9 °F 64 °F 30.1 in WSW 2.3 mph 2.3 mph 74 % 0 in
23:40 69.4 °F 65.1 °F 30.1 in Calm     86 % 0 in
23:42 72.9 °F 64 °F 30.1 in West 2.3 mph 2.3 mph 74 % 0 in
23:47 72.9 °F 64.6 °F 30.1 in West 1.2 mph 1.2 mph 75 % 0 in
23:50 69.4 °F 65.1 °F 30.1 in Calm     86 % 0 in
23:52 72.9 °F 64.6 °F 30.1 in West 2.3 mph 2.3 mph 75 % 0 in
23:57 72.9 °F 64.6 °F 30.1 in SW 2.3 mph 2.3 mph 75 % 0 in
Meteo Sesrovires
Elogis d' Weather Underground - 3.5 mb

Guio original per  Jim McMurry - jmcmurry@mwt.net Adaptat per a la plantilla per  Wim van der Kuil - Leuven-Template.eu

Trobareu la nostra informacio del temps tambe a:

Weather Underground

AWEKAS